createdAt,value
2022-10-09T00:02:11.644Z,12.40
2022-10-09T00:04:56.946Z,12.40
2022-10-09T00:07:42.287Z,12.40
2022-10-09T00:10:27.967Z,12.40
2022-10-09T00:13:13.510Z,12.30
2022-10-09T00:16:01.866Z,12.20
2022-10-09T00:18:47.496Z,12.20
2022-10-09T00:21:34.374Z,12.20
2022-10-09T00:24:19.505Z,12.20
2022-10-09T00:27:04.983Z,12.10
2022-10-09T00:29:51.009Z,12.10
2022-10-09T00:32:36.260Z,12.00
2022-10-09T00:35:22.547Z,12.00
2022-10-09T00:38:07.956Z,12.00
2022-10-09T00:40:53.002Z,12.00
2022-10-09T00:43:40.156Z,11.90
2022-10-09T00:46:45.390Z,11.90
2022-10-09T00:49:33.471Z,11.90
2022-10-09T00:52:20.311Z,11.80
2022-10-09T00:55:09.060Z,11.70
2022-10-09T00:57:55.950Z,11.70
2022-10-09T01:00:42.006Z,11.60
2022-10-09T01:03:27.111Z,11.60
2022-10-09T01:06:55.362Z,11.60
2022-10-09T01:09:46.969Z,11.70
2022-10-09T01:12:54.837Z,11.60
2022-10-09T01:15:52.843Z,11.60
2022-10-09T01:19:12.505Z,11.60
2022-10-09T01:22:10.485Z,11.60
2022-10-09T01:25:07.713Z,11.40
2022-10-09T01:27:53.515Z,11.40
2022-10-09T01:30:38.929Z,11.50
2022-10-09T01:33:24.259Z,11.40
2022-10-09T01:36:10.401Z,11.40
2022-10-09T01:38:59.728Z,11.40
2022-10-09T01:41:46.420Z,11.30
2022-10-09T01:44:33.333Z,11.30
2022-10-09T01:47:21.071Z,11.30
2022-10-09T01:50:15.906Z,11.30
2022-10-09T01:53:07.727Z,11.30
2022-10-09T01:56:16.520Z,11.30
2022-10-09T01:59:12.315Z,11.20
2022-10-09T02:02:00.611Z,11.20
2022-10-09T02:04:48.709Z,11.10
2022-10-09T02:07:34.969Z,11.10
2022-10-09T02:10:21.905Z,11.00
2022-10-09T02:13:07.362Z,11.00
2022-10-09T02:16:20.344Z,11.00
2022-10-09T02:19:19.763Z,11.00
2022-10-09T02:22:12.900Z,11.00
2022-10-09T02:25:00.237Z,11.00
2022-10-09T02:27:46.803Z,10.90
2022-10-09T02:30:41.754Z,10.90
2022-10-09T02:33:30.582Z,10.90
2022-10-09T02:36:15.632Z,10.80
2022-10-09T02:39:01.772Z,10.80
2022-10-09T02:41:47.089Z,10.80
2022-10-09T02:44:32.639Z,10.80
2022-10-09T02:47:18.520Z,10.80
2022-10-09T02:50:03.904Z,10.70
2022-10-09T02:52:49.675Z,10.70
2022-10-09T02:55:36.455Z,10.70
2022-10-09T02:58:21.729Z,10.60
2022-10-09T03:01:07.175Z,10.70
2022-10-09T03:03:52.734Z,10.60
2022-10-09T03:06:38.214Z,10.60
2022-10-09T03:09:23.613Z,10.50
2022-10-09T03:12:09.143Z,10.40
2022-10-09T03:14:54.607Z,10.50
2022-10-09T03:17:40.246Z,10.40
2022-10-09T03:20:25.466Z,10.40
2022-10-09T03:23:11.607Z,10.40
2022-10-09T03:26:01.588Z,10.30
2022-10-09T03:28:49.158Z,10.30
2022-10-09T03:34:39.675Z,10.30
2022-10-09T03:37:25.060Z,10.30
2022-10-09T03:40:10.648Z,10.20
2022-10-09T03:42:55.976Z,10.30
2022-10-09T03:45:42.821Z,10.20
2022-10-09T03:48:28.030Z,10.20
2022-10-09T03:51:13.386Z,10.10
2022-10-09T03:53:58.664Z,10.20
2022-10-09T03:56:44.008Z,10.20
2022-10-09T03:59:29.607Z,10.10
2022-10-09T04:02:14.963Z,10.10
2022-10-09T04:05:00.688Z,10.10
2022-10-09T04:07:45.963Z,10.10
2022-10-09T04:10:31.282Z,10.00
2022-10-09T04:13:16.643Z,10.10
2022-10-09T04:16:01.892Z,10.10
2022-10-09T04:18:47.889Z,10.10
2022-10-09T04:21:33.761Z,10.10
2022-10-09T04:24:18.993Z,10.20
2022-10-09T04:27:05.156Z,10.10
2022-10-09T04:29:50.410Z,10.10
2022-10-09T04:32:35.968Z,10.10
2022-10-09T04:35:21.287Z,10.10
2022-10-09T04:38:06.567Z,10.10
2022-10-09T04:41:03.553Z,10.10
2022-10-09T04:43:48.871Z,10.20
2022-10-09T04:46:34.432Z,10.10
2022-10-09T04:49:19.796Z,10.10
2022-10-09T04:52:05.348Z,10.00
2022-10-09T04:54:50.731Z,10.00
2022-10-09T04:57:36.004Z,10.00
2022-10-09T05:00:21.277Z,9.90
2022-10-09T05:03:06.756Z,10.00
2022-10-09T05:05:52.398Z,10.00
2022-10-09T05:08:38.483Z,9.90
2022-10-09T05:11:25.477Z,9.90
2022-10-09T05:14:10.981Z,9.90
2022-10-09T05:17:12.929Z,9.80
2022-10-09T05:19:59.046Z,9.80
2022-10-09T05:22:45.040Z,9.60
2022-10-09T05:25:30.223Z,9.60
2022-10-09T05:28:15.684Z,9.70
2022-10-09T05:31:02.753Z,9.70
2022-10-09T05:33:48.713Z,9.70
2022-10-09T05:36:33.933Z,9.60
2022-10-09T05:39:19.206Z,9.60
2022-10-09T05:42:05.055Z,9.60
2022-10-09T05:44:50.032Z,9.50
2022-10-09T05:47:35.593Z,9.50
2022-10-09T05:50:21.051Z,9.40
2022-10-09T05:53:06.299Z,9.40
2022-10-09T05:55:51.698Z,9.30
2022-10-09T05:58:37.025Z,9.30
2022-10-09T06:01:25.040Z,9.30
2022-10-09T06:04:17.148Z,9.30
2022-10-09T06:07:02.728Z,9.40
2022-10-09T06:09:48.156Z,9.30
2022-10-09T06:12:33.523Z,9.30
2022-10-09T06:15:18.968Z,9.30
2022-10-09T06:18:04.414Z,9.30
2022-10-09T06:21:00.155Z,9.30
2022-10-09T06:23:48.649Z,9.20
2022-10-09T06:26:34.625Z,9.30
2022-10-09T06:29:19.988Z,9.10
2022-10-09T06:32:05.516Z,9.00
2022-10-09T06:34:50.839Z,9.10
2022-10-09T06:37:36.426Z,9.20
2022-10-09T06:40:21.808Z,9.20
2022-10-09T06:43:07.338Z,9.20
2022-10-09T06:45:52.595Z,9.20
2022-10-09T06:48:39.869Z,9.20
2022-10-09T06:51:27.809Z,9.20
2022-10-09T06:54:16.178Z,9.30
2022-10-09T06:57:01.364Z,9.20
2022-10-09T06:59:50.039Z,9.30
2022-10-09T07:02:40.561Z,9.30
2022-10-09T07:05:28.292Z,9.40
2022-10-09T07:08:13.750Z,9.50
2022-10-09T07:10:59.103Z,9.20
2022-10-09T07:13:44.836Z,9.20
2022-10-09T07:16:33.227Z,9.30
2022-10-09T07:19:19.227Z,9.40
2022-10-09T07:22:04.524Z,9.20
2022-10-09T07:24:50.722Z,9.20
2022-10-09T07:27:35.965Z,9.20
2022-10-09T07:30:21.423Z,9.40
2022-10-09T07:33:06.822Z,9.40
2022-10-09T07:35:57.375Z,9.50
2022-10-09T07:38:43.372Z,9.60
2022-10-09T07:41:29.649Z,9.70
2022-10-09T07:44:14.803Z,9.70
2022-10-09T07:47:00.083Z,9.80
2022-10-09T07:49:45.579Z,9.90
2022-10-09T07:52:31.048Z,10.00
2022-10-09T07:55:16.559Z,9.90
2022-10-09T07:58:02.789Z,10.10
2022-10-09T08:00:48.082Z,10.10
2022-10-09T08:03:33.982Z,10.20
2022-10-09T08:06:19.418Z,10.20
2022-10-09T08:09:06.839Z,10.20
2022-10-09T08:11:52.031Z,10.30
2022-10-09T08:14:37.360Z,10.50
2022-10-09T08:17:22.755Z,10.70
2022-10-09T08:20:08.898Z,10.70
2022-10-09T08:22:54.132Z,10.70
2022-10-09T08:25:39.659Z,10.70
2022-10-09T08:28:25.504Z,10.70
2022-10-09T08:31:12.746Z,10.70
2022-10-09T08:34:00.229Z,11.00
2022-10-09T08:36:45.576Z,11.00
2022-10-09T08:39:31.129Z,11.10
2022-10-09T08:42:28.433Z,11.10
2022-10-09T08:45:19.317Z,11.20
2022-10-09T08:48:12.266Z,11.20
2022-10-09T08:50:59.300Z,11.40
2022-10-09T08:53:50.592Z,11.60
2022-10-09T08:56:35.980Z,11.80
2022-10-09T08:59:21.104Z,12.00
2022-10-09T09:02:51.513Z,12.10
2022-10-09T09:05:45.446Z,12.30
2022-10-09T09:08:58.003Z,12.60
2022-10-09T09:11:52.201Z,12.80
2022-10-09T09:14:48.756Z,12.90
2022-10-09T09:17:54.180Z,13.10
2022-10-09T09:20:54.035Z,13.00
2022-10-09T09:23:43.363Z,13.10
2022-10-09T09:26:29.250Z,13.50
2022-10-09T09:29:17.841Z,13.80
2022-10-09T09:32:03.821Z,13.90
2022-10-09T09:34:49.890Z,14.00
2022-10-09T09:37:37.572Z,14.40
2022-10-09T09:40:38.134Z,14.60
2022-10-09T09:43:26.855Z,14.80
2022-10-09T09:46:19.042Z,15.10
2022-10-09T09:49:23.625Z,15.40
2022-10-09T09:52:09.314Z,15.60
2022-10-09T09:54:57.325Z,15.90
2022-10-09T09:57:44.769Z,15.80
2022-10-09T10:00:30.280Z,15.80
2022-10-09T10:03:18.280Z,16.20
2022-10-09T10:06:04.328Z,16.30
2022-10-09T10:09:04.880Z,16.40
2022-10-09T10:11:58.168Z,16.30
2022-10-09T10:14:50.124Z,16.20
2022-10-09T10:17:36.918Z,16.30
2022-10-09T10:20:22.518Z,16.30
2022-10-09T10:23:26.179Z,16.60
2022-10-09T10:26:24.425Z,16.70
2022-10-09T10:29:25.097Z,16.60
2022-10-09T10:32:26.467Z,16.80
2022-10-09T10:35:39.606Z,16.90
2022-10-09T10:39:03.968Z,16.90
2022-10-09T10:41:52.666Z,17.10
2022-10-09T10:44:47.399Z,17.10
2022-10-09T10:47:36.953Z,17.10
2022-10-09T10:50:23.772Z,17.20
2022-10-09T10:53:37.958Z,17.40
2022-10-09T10:56:35.471Z,17.30
2022-10-09T10:59:29.118Z,17.40
2022-10-09T11:02:59.086Z,17.40
2022-10-09T11:06:13.747Z,17.60
2022-10-09T11:09:09.475Z,17.50
2022-10-09T11:12:10.046Z,17.70
2022-10-09T11:15:26.870Z,17.80
2022-10-09T11:18:36.483Z,17.90
2022-10-09T11:21:43.253Z,18.00
2022-10-09T11:24:56.811Z,18.10
2022-10-09T11:27:54.782Z,18.20
2022-10-09T11:30:49.799Z,18.20
2022-10-09T11:33:40.622Z,18.20
2022-10-09T11:36:56.632Z,18.10
2022-10-09T11:39:42.661Z,18.20
2022-10-09T11:42:28.412Z,18.00
2022-10-09T11:45:29.331Z,18.00
2022-10-09T11:48:35.921Z,18.20
2022-10-09T11:51:27.177Z,18.30
2022-10-09T11:54:18.548Z,18.70
2022-10-09T11:57:06.338Z,18.50
2022-10-09T12:00:05.301Z,18.30
2022-10-09T12:03:01.855Z,18.50
2022-10-09T12:05:49.613Z,18.40
2022-10-09T12:08:36.389Z,18.60
2022-10-09T12:11:22.709Z,18.60
2022-10-09T12:14:08.783Z,18.70
2022-10-09T12:16:54.398Z,18.70
2022-10-09T12:19:40.938Z,18.70
2022-10-09T12:22:40.555Z,19.10
2022-10-09T12:25:38.433Z,19.50
2022-10-09T12:28:54.890Z,19.50
2022-10-09T12:31:42.285Z,19.50
2022-10-09T12:34:41.909Z,19.30
2022-10-09T12:37:45.400Z,19.20
2022-10-09T12:40:33.267Z,19.40
2022-10-09T12:43:20.991Z,19.70
2022-10-09T12:46:06.420Z,20.20
2022-10-09T12:48:52.201Z,20.00
2022-10-09T12:51:37.223Z,20.10
2022-10-09T12:54:25.007Z,19.90
2022-10-09T12:57:15.117Z,19.90
2022-10-09T13:00:00.375Z,20.20
2022-10-09T13:02:45.998Z,20.40
2022-10-09T13:05:41.946Z,20.60
2022-10-09T13:08:30.528Z,20.90
2022-10-09T13:11:24.317Z,20.90
2022-10-09T13:14:33.529Z,20.50
2022-10-09T13:20:16.907Z,20.40
2022-10-09T13:23:04.743Z,20.40
2022-10-09T13:25:51.735Z,20.70
2022-10-09T13:28:36.786Z,20.60
2022-10-09T13:31:22.021Z,20.80
2022-10-09T13:34:12.853Z,20.60
2022-10-09T13:36:57.827Z,20.60
2022-10-09T13:39:43.400Z,20.60
2022-10-09T13:42:33.769Z,20.60
2022-10-09T13:45:18.971Z,20.70
2022-10-09T13:48:04.399Z,20.40
2022-10-09T13:50:49.811Z,20.60
2022-10-09T13:53:35.479Z,20.70
2022-10-09T13:56:20.790Z,21.00
2022-10-09T13:59:06.100Z,21.10
2022-10-09T14:01:52.330Z,21.10
2022-10-09T14:04:37.750Z,21.00
2022-10-09T14:07:23.204Z,21.10
2022-10-09T14:10:09.282Z,21.20
2022-10-09T14:12:54.452Z,20.60
2022-10-09T14:15:40.717Z,20.80
2022-10-09T14:18:26.018Z,21.00
2022-10-09T14:21:15.943Z,20.70
2022-10-09T14:24:05.616Z,20.70
2022-10-09T14:26:56.509Z,20.70
2022-10-09T14:29:42.106Z,20.70
2022-10-09T14:32:27.907Z,20.20
2022-10-09T14:35:21.626Z,20.30
2022-10-09T14:38:10.373Z,20.20
2022-10-09T14:41:04.106Z,20.40
2022-10-09T14:43:58.132Z,20.40
2022-10-09T14:46:43.603Z,20.50
2022-10-09T14:49:28.986Z,20.30
2022-10-09T14:52:14.261Z,20.10
2022-10-09T14:55:00.172Z,20.10
2022-10-09T14:57:45.887Z,19.90
2022-10-09T15:00:31.201Z,19.80
2022-10-09T15:03:16.650Z,19.80
2022-10-09T15:06:04.699Z,19.70
2022-10-09T15:08:53.567Z,19.70
2022-10-09T15:11:38.905Z,19.70
2022-10-09T15:14:24.376Z,19.80
2022-10-09T15:17:09.798Z,19.80
2022-10-09T15:19:55.146Z,19.60
2022-10-09T15:22:40.987Z,19.60
2022-10-09T15:25:31.039Z,19.70
2022-10-09T15:28:17.179Z,19.80
2022-10-09T15:31:05.671Z,19.90
2022-10-09T15:33:52.313Z,19.80
2022-10-09T15:36:39.879Z,19.60
2022-10-09T15:39:25.252Z,19.70
2022-10-09T15:42:10.773Z,19.40
2022-10-09T15:44:56.150Z,19.40
2022-10-09T15:47:50.831Z,19.40
2022-10-09T15:50:37.314Z,19.40
2022-10-09T15:53:24.452Z,19.50
2022-10-09T15:56:13.890Z,19.50
2022-10-09T15:58:59.604Z,19.30
2022-10-09T16:01:44.822Z,19.30
2022-10-09T16:04:30.215Z,19.30
2022-10-09T16:07:15.570Z,19.40
2022-10-09T16:10:00.895Z,19.50
2022-10-09T16:12:46.517Z,19.50
2022-10-09T16:15:31.533Z,19.50
2022-10-09T16:18:19.175Z,19.40
2022-10-09T16:21:06.827Z,19.30
2022-10-09T16:23:57.365Z,19.20
2022-10-09T16:26:43.616Z,19.10
2022-10-09T16:29:30.736Z,19.00
2022-10-09T16:32:16.336Z,18.90
2022-10-09T16:35:02.155Z,18.70
2022-10-09T16:37:47.585Z,18.60
2022-10-09T16:40:57.314Z,18.40
2022-10-09T16:43:39.217Z,18.40
2022-10-09T16:49:22.674Z,18.10
2022-10-09T16:52:10.045Z,18.00
2022-10-09T16:54:59.558Z,17.90
2022-10-09T16:57:46.344Z,17.80
2022-10-09T17:00:31.901Z,17.60
2022-10-09T17:03:17.094Z,17.50
2022-10-09T17:06:11.081Z,17.40
2022-10-09T17:08:58.725Z,17.30
2022-10-09T17:11:44.519Z,17.30
2022-10-09T17:14:30.052Z,17.20
2022-10-09T17:17:15.288Z,17.10
2022-10-09T17:20:00.925Z,17.00
2022-10-09T17:22:46.119Z,16.90
2022-10-09T17:25:32.024Z,16.80
2022-10-09T17:28:17.484Z,16.80
2022-10-09T17:31:08.076Z,16.70
2022-10-09T17:33:55.962Z,16.60
2022-10-09T17:36:43.215Z,16.50
2022-10-09T17:39:28.490Z,16.60
2022-10-09T17:42:14.550Z,16.50
2022-10-09T17:45:00.445Z,16.40
2022-10-09T17:47:45.802Z,16.20
2022-10-09T17:50:31.371Z,16.20
2022-10-09T17:53:16.806Z,16.10
2022-10-09T17:56:03.866Z,16.10
2022-10-09T17:58:50.046Z,16.10
2022-10-09T18:01:36.220Z,16.00
2022-10-09T18:04:21.714Z,16.00
2022-10-09T18:07:07.079Z,16.00
2022-10-09T18:09:52.406Z,15.90
2022-10-09T18:12:37.801Z,15.80
2022-10-09T18:15:23.362Z,15.90
2022-10-09T18:18:09.404Z,15.80
2022-10-09T18:20:54.721Z,15.60
2022-10-09T18:23:40.154Z,15.50
2022-10-09T18:26:25.499Z,15.40
2022-10-09T18:29:10.965Z,15.30
2022-10-09T18:31:56.343Z,15.30
2022-10-09T18:34:46.259Z,15.20
2022-10-09T18:37:32.000Z,15.20
2022-10-09T18:40:17.273Z,15.10
2022-10-09T18:43:03.098Z,15.10
2022-10-09T18:45:48.362Z,15.00
2022-10-09T18:48:37.630Z,15.00
2022-10-09T18:51:25.923Z,14.80
2022-10-09T18:54:17.076Z,14.80
2022-10-09T18:57:04.513Z,14.80
2022-10-09T18:59:51.442Z,14.80
2022-10-09T19:02:36.666Z,14.70
2022-10-09T19:05:22.057Z,14.60
2022-10-09T19:08:07.347Z,14.60
2022-10-09T19:10:53.654Z,14.60
2022-10-09T19:13:38.639Z,14.50
2022-10-09T19:16:24.295Z,14.40
2022-10-09T19:19:09.394Z,14.20
2022-10-09T19:21:54.845Z,14.10
2022-10-09T19:24:40.203Z,14.10
2022-10-09T19:27:26.765Z,14.30
2022-10-09T19:30:12.640Z,14.30
2022-10-09T19:32:57.739Z,14.30
2022-10-09T19:35:51.481Z,14.30
2022-10-09T19:38:36.879Z,14.30
2022-10-09T19:41:22.261Z,14.30
2022-10-09T19:44:08.588Z,14.30
2022-10-09T19:46:54.037Z,14.40
2022-10-09T19:49:39.802Z,14.30
2022-10-09T19:52:24.982Z,14.30
2022-10-09T19:55:10.380Z,14.30
2022-10-09T19:57:55.933Z,14.20
2022-10-09T20:00:43.289Z,14.20
2022-10-09T20:03:28.535Z,14.20
2022-10-09T20:06:14.146Z,14.10
2022-10-09T20:08:59.379Z,14.10
2022-10-09T20:11:44.801Z,14.00
2022-10-09T20:14:30.165Z,14.00
2022-10-09T20:17:15.567Z,14.00
2022-10-09T20:20:03.897Z,14.10
2022-10-09T20:22:49.613Z,14.00
2022-10-09T20:25:35.232Z,14.00
2022-10-09T20:28:20.623Z,14.00
2022-10-09T20:31:08.142Z,14.00
2022-10-09T20:33:55.317Z,13.90
2022-10-09T20:36:40.371Z,14.00
2022-10-09T20:39:25.794Z,13.90
2022-10-09T20:42:11.073Z,13.90
2022-10-09T20:44:56.303Z,13.90
2022-10-09T20:47:41.673Z,13.80
2022-10-09T20:50:26.953Z,13.80
2022-10-09T20:53:12.592Z,13.80
2022-10-09T20:56:03.019Z,13.70
2022-10-09T20:58:48.388Z,13.70
2022-10-09T21:01:34.171Z,13.70
2022-10-09T21:04:19.616Z,13.60
2022-10-09T21:07:05.092Z,13.70
2022-10-09T21:09:50.493Z,13.70
2022-10-09T21:12:36.222Z,13.70
2022-10-09T21:15:22.048Z,13.60
2022-10-09T21:18:07.653Z,13.60
2022-10-09T21:20:52.917Z,13.60
2022-10-09T21:23:39.385Z,13.50
2022-10-09T21:26:25.668Z,13.50
2022-10-09T21:29:11.204Z,13.50
2022-10-09T21:31:56.240Z,13.60
2022-10-09T21:34:41.719Z,13.50
2022-10-09T21:37:27.044Z,13.60
2022-10-09T21:40:12.310Z,13.60
2022-10-09T21:42:57.755Z,13.60
2022-10-09T21:45:43.117Z,13.60
2022-10-09T21:48:28.515Z,13.60
2022-10-09T21:51:13.814Z,13.50
2022-10-09T21:53:59.284Z,13.50
2022-10-09T21:56:44.853Z,13.50
2022-10-09T21:59:30.306Z,13.40
2022-10-09T22:02:15.755Z,13.40
2022-10-09T22:05:01.011Z,13.40
2022-10-09T22:07:46.292Z,13.40
2022-10-09T22:10:31.787Z,13.40
2022-10-09T22:13:18.380Z,13.50
2022-10-09T22:16:09.198Z,13.50
2022-10-09T22:18:54.558Z,13.40
2022-10-09T22:21:39.943Z,13.40
2022-10-09T22:24:29.125Z,13.30
2022-10-09T22:27:15.217Z,13.40
2022-10-09T22:30:00.474Z,13.30
2022-10-09T22:32:45.866Z,13.30
2022-10-09T22:35:31.316Z,13.30
2022-10-09T22:38:16.720Z,13.30
2022-10-09T22:41:10.288Z,13.20
2022-10-09T22:43:59.282Z,13.20
2022-10-09T22:46:44.854Z,13.20
2022-10-09T22:49:30.243Z,13.30
2022-10-09T22:52:15.570Z,13.30
2022-10-09T22:55:00.977Z,13.20
2022-10-09T22:57:46.551Z,13.20
2022-10-09T23:00:32.490Z,13.30
2022-10-09T23:03:17.608Z,13.40
2022-10-09T23:06:15.208Z,13.40
2022-10-09T23:09:00.676Z,13.50
2022-10-09T23:11:46.162Z,13.50
2022-10-09T23:14:31.610Z,13.40
2022-10-09T23:17:17.027Z,13.30
2022-10-09T23:20:02.432Z,13.30
2022-10-09T23:22:48.113Z,13.30
2022-10-09T23:25:33.737Z,13.20
2022-10-09T23:28:19.117Z,13.30
2022-10-09T23:31:07.827Z,13.30
2022-10-09T23:33:54.724Z,13.30
2022-10-09T23:36:39.882Z,13.30
2022-10-09T23:39:25.331Z,13.30
2022-10-09T23:42:10.666Z,13.30
2022-10-09T23:44:55.962Z,13.30
2022-10-09T23:47:41.316Z,13.30
2022-10-09T23:50:26.695Z,13.30
2022-10-09T23:53:12.061Z,13.30
2022-10-09T23:55:57.528Z,13.40
2022-10-09T23:58:43.091Z,13.40
